Time;durP1;ratioP1;P1;durP2;ratioP2;P2;SDS_P1;SDS_P2;PMS_P1;PMS_P2;Temp;Humidity;BMP_temperature;BMP_pressure;BME280_temperature;BME280_humidity;BME280_pressure;Samples;Min_cycle;Max_cycle;Signal;HPM_P1;HPM_P2
2022/06/05 00:01:01;;;;;;;;;;;;;;;;;;;;;
2022/06/05 00:03:54;;;;;;;;;14.00;11.25;;;;;20.69;67.91;101004.75;4938507;28;75402;-70
2022/06/05 00:06:30;;;;;;;;;10.00;9.75;;;;;20.64;68.13;100992.50;4935772;28;45417;-70
2022/06/05 00:09:05;;;;;;;;;9.00;7.75;;;;;20.64;68.04;101000.63;4943235;28;45471;-70
2022/06/05 00:11:51;;;;;;;;;;;;;;;;;;;;;
2022/06/05 00:14:45;;;;;;;;;10.75;10.25;;;;;20.35;68.05;100960.16;4938592;28;75325;-70
2022/06/05 00:17:18;;;;;;;;;12.25;11.00;;;;;20.62;68.14;100989.88;4937581;28;45340;-70
2022/06/05 00:19:57;;;;;;;;;9.25;8.00;;;;;20.43;68.46;100959.59;4951731;28;45343;-70
2022/06/05 00:22:27;;;;;;;;;9.75;9.75;;;;;20.70;68.61;101009.22;4933384;28;45483;-70
2022/06/05 00:24:57;;;;;;;;;10.75;9.25;;;;;20.47;68.55;100971.97;4938014;28;47542;-70
2022/06/05 00:27:48;;;;;;;;;;;;;;;;;;;;;
2022/06/05 00:30:52;;;;;;;;;;;;;;;;;;;;;
2022/06/05 00:33:38;;;;;;;;;13.50;12.00;;;;;20.78;68.59;101014.09;4930623;28;72872;-70
2022/06/05 00:36:25;;;;;;;;;8.50;7.50;;;;;20.78;68.36;101003.25;4930917;28;45775;-70
2022/06/05 00:39:17;;;;;;;;;14.00;10.00;;;;;20.70;69.10;100983.94;4925969;28;45419;-70
2022/06/05 00:42:08;;;;;;;;;;;;;;;;;;;;;
2022/06/05 00:45:12;;;;;;;;;11.50;11.00;;;;;20.78;68.49;100992.41;4948928;28;72913;-70
2022/06/05 00:47:45;;;;;;;;;13.00;11.50;;;;;20.78;68.77;100981.56;4929028;28;46101;-70
2022/06/05 00:50:14;;;;;;;;;8.75;8.25;;;;;20.39;68.43;100914.72;4950927;28;45514;-70
2022/06/05 00:52:44;;;;;;;;;10.75;8.75;;;;;20.49;69.00;100919.34;4950014;28;45234;-70
2022/06/05 00:55:13;;;;;;;;;9.00;8.00;;;;;20.64;68.33;100949.97;4930192;28;45515;-70
2022/06/05 00:57:50;;;;;;;;;10.00;7.75;;;;;20.72;68.72;100966.56;4944613;28;47279;-70
2022/06/05 01:00:23;;;;;;;;;7.50;7.50;;;;;20.37;68.81;100914.81;4927021;28;45342;-70
2022/06/05 01:03:01;;;;;;;;;11.50;9.50;;;;;20.53;68.65;100939.88;4950681;28;45392;-70
2022/06/05 01:05:50;;;;;;;;;11.25;10.00;;;;;20.72;68.87;100979.25;4949059;28;45471;-70
2022/06/05 01:08:22;;;;;;;;;10.00;8.00;;;;;20.53;69.09;100944.41;4945263;28;46870;-70
2022/06/05 01:11:17;;;;;;;;;11.50;11.00;;;;;20.50;68.98;100934.66;4929428;28;46196;-70
2022/06/05 01:14:16;;;;;;;;;11.00;9.50;;;;;20.75;68.53;100970.03;4928498;28;45403;-70
2022/06/05 01:17:20;;;;;;;;;;;;;;;;;;;;;
2022/06/05 01:20:08;;;;;;;;;;;;;;;;;;;;;
2022/06/05 01:23:14;;;;;;;;;12.75;9.25;;;;;20.58;68.66;100908.81;4950810;28;73169;-70
2022/06/05 01:26:12;;;;;;;;;;;;;;;;;;;;;
2022/06/05 01:28:55;;;;;;;;;10.75;10.75;;;;;20.60;68.92;100896.00;4936326;28;73214;-70
2022/06/05 01:31:39;;;;;;;;;9.00;8.50;;;;;20.76;68.42;100920.22;4926819;28;48184;-70
2022/06/05 01:34:25;;;;;;;;;12.25;11.00;;;;;20.73;68.92;100913.16;4950577;28;45252;-70
2022/06/05 01:37:05;;;;;;;;;11.00;11.00;;;;;20.71;68.79;100901.56;4950121;28;45482;-70
2022/06/05 01:39:53;;;;;;;;;10.50;9.50;;;;;20.76;68.97;100906.66;4946066;28;45443;-70
2022/06/05 01:43:00;;;;;;;;;14.75;11.00;;;;;20.50;68.71;100864.16;4944495;28;46123;-70
2022/06/05 01:46:04;;;;;;;;;11.50;10.75;;;;;20.76;69.11;100891.25;4946966;28;45400;-70
2022/06/05 01:48:43;;;;;;;;;12.50;10.25;;;;;20.50;69.09;100839.75;4938287;28;45368;-70
2022/06/05 01:51:22;;;;;;;;;11.00;10.75;;;;;20.55;69.34;100836.72;4949415;28;45388;-70
2022/06/05 01:53:53;;;;;;;;;9.50;9.50;;;;;20.73;68.69;100865.22;4928735;28;45304;-70
2022/06/05 01:56:35;;;;;;;;;12.00;11.25;;;;;20.70;68.71;100862.75;4952562;28;45463;-70
2022/06/05 01:59:32;;;;;;;;;;;;;;;;;;;;;
2022/06/05 02:02:12;;;;;;;;;13.25;11.75;;;;;20.52;69.29;100831.50;4928149;28;71893;-70
2022/06/05 02:04:55;;;;;;;;;;;;;;;;;;;;;
2022/06/05 02:07:38;;;;;;;;;14.50;12.25;;;;;20.43;68.53;100800.50;4951383;28;72885;-70
2022/06/05 02:10:29;;;;;;;;;11.75;11.00;;;;;20.59;68.52;100821.06;4934037;28;45514;-70
2022/06/05 02:13:06;;;;;;;;;10.00;10.00;;;;;20.57;68.65;100812.19;4943348;28;45158;-70
2022/06/05 02:15:33;;;;;;;;;12.50;12.50;;;;;20.63;68.72;100817.19;4948625;28;48280;-70
2022/06/05 02:18:03;;;;;;;;;11.50;11.25;;;;;20.54;68.74;100803.28;4952762;28;45424;-70
2022/06/05 02:20:28;;;;;;;;;10.50;10.50;;;;;20.54;69.40;100805.13;4944392;28;45372;-70
2022/06/05 02:23:04;;;;;;;;;;;;;;;;;;;;;
2022/06/05 02:25:41;;;;;;;;;15.50;15.00;;;;;20.68;69.59;100826.72;4952273;28;75688;-70
2022/06/05 02:28:23;;;;;;;;;;;;;;;;;;;;;
2022/06/05 02:31:07;;;;;;;;;9.75;9.75;;;;;20.74;69.01;100830.81;4944448;28;67141;-70
2022/06/05 02:34:01;;;;;;;;;12.75;10.25;;;;;20.75;69.11;100839.81;4952862;28;45296;-70
2022/06/05 02:36:48;;;;;;;;;13.75;12.25;;;;;20.71;69.10;100825.63;4929360;28;47164;-71
2022/06/05 02:39:20;;;;;;;;;12.00;9.75;;;;;20.69;69.02;100820.31;4952437;28;45333;-70
2022/06/05 02:42:26;;;;;;;;;11.25;10.75;;;;;20.68;69.34;100821.31;4936978;28;45508;-70
2022/06/05 02:45:53;;;;;;;;;9.50;9.50;;;;;20.67;68.92;100811.44;4946899;28;45449;-71
2022/06/05 02:48:43;;;;;;;;;13.50;11.75;;;;;20.62;68.88;100804.59;4935023;28;48065;-71
2022/06/05 02:51:26;;;;;;;;;;;;;;;;;;;;;
2022/06/05 02:54:00;;;;;;;;;10.75;10.75;;;;;20.25;68.62;100748.50;4927300;28;69343;-70
2022/06/05 02:56:38;;;;;;;;;;;;;;;;;;;;;
2022/06/05 02:59:11;;;;;;;;;11.00;11.00;;;;;20.31;68.61;100756.19;4949323;28;75334;-70
2022/06/05 03:04:22;;;;;;;;;10.00;9.50;;;;;20.55;68.91;100805.03;4946969;28;45455;-71
2022/06/05 03:06:48;;;;;;;;;8.75;7.75;;;;;20.62;69.09;100815.44;4952643;28;45483;-71
2022/06/05 03:09:23;;;;;;;;;;;;;;;;;;;;;
2022/06/05 03:11:58;;;;;;;;;11.00;8.00;;;;;20.39;68.66;100780.00;4926743;28;72906;-71
2022/06/05 03:14:28;;;;;;;;;7.00;7.00;;;;;20.42;68.73;100785.22;4927171;28;45349;-71
2022/06/05 03:16:58;;;;;;;;;8.00;7.00;;;;;20.36;68.89;100789.25;4947440;28;45333;-70
2022/06/05 03:19:27;;;;;;;;;9.75;8.25;;;;;20.35;68.05;100786.66;4946481;28;48079;-70
2022/06/05 03:22:02;;;;;;;;;10.00;10.00;;;;;20.25;68.18;100772.03;4948356;28;45671;-70
2022/06/05 03:24:30;;;;;;;;;9.50;8.75;;;;;20.58;68.95;100833.78;4946760;28;45294;-70
2022/06/05 03:26:58;;;;;;;;;8.75;7.50;;;;;20.22;68.72;100767.69;4947037;28;45596;-70
2022/06/05 03:29:26;;;;;;;;;8.75;8.25;;;;;20.45;68.84;100812.09;4945192;28;47758;-70
2022/06/05 03:32:11;;;;;;;;;9.00;9.00;;;;;20.28;68.59;100777.22;4939737;28;45396;-71
2022/06/05 03:34:41;;;;;;;;;11.50;7.75;;;;;20.39;68.46;100809.84;4927689;28;45487;-70
2022/06/05 03:37:07;;;;;;;;;10.50;9.50;;;;;20.19;68.10;100784.16;4951667;28;45437;-70
2022/06/05 03:39:46;;;;;;;;;;;;;;;;;;;;;
2022/06/05 03:42:29;;;;;;;;;11.50;10.50;;;;;20.41;68.85;100842.25;4945174;28;71996;-70
2022/06/05 03:44:57;;;;;;;;;12.25;12.25;;;;;20.16;68.58;100812.38;4943994;28;45828;-70
2022/06/05 03:47:38;;;;;;;;;;;;;;;;;;;;;
2022/06/05 03:50:11;;;;;;;;;10.25;9.50;;;;;20.41;68.49;100851.25;4945129;28;74207;-71
2022/06/05 03:52:37;;;;;;;;;12.25;12.25;;;;;20.39;68.55;100850.50;4948934;28;45458;-70
2022/06/05 03:55:03;;;;;;;;;13.00;13.00;;;;;20.20;68.35;100826.56;4953012;28;45464;-71
2022/06/05 03:57:34;;;;;;;;;10.00;10.00;;;;;20.06;68.56;100811.28;4947153;28;45360;-71
2022/06/05 04:00:09;;;;;;;;;11.50;11.50;;;;;20.24;68.18;100846.19;4951381;28;46539;-70
2022/06/05 04:02:40;;;;;;;;;13.25;13.25;;;;;20.42;68.83;100871.13;4947581;28;45536;-70
2022/06/05 04:05:14;;;;;;;;;14.50;13.75;;;;;20.08;68.24;100817.47;4938583;28;45378;-70
2022/06/05 04:07:48;;;;;;;;;13.25;13.25;;;;;20.30;68.33;100860.16;4935117;28;45665;-70
2022/06/05 04:10:20;;;;;;;;;10.00;9.75;;;;;20.05;68.54;100830.38;4942493;28;48130;-71
2022/06/05 04:12:56;;;;;;;;;;;;;;;;;;;;;
2022/06/05 04:15:24;;;;;;;;;10.50;9.25;;;;;20.23;68.66;100868.84;4949500;28;68997;-71
2022/06/05 04:17:57;;;;;;;;;10.50;10.50;;;;;20.16;69.07;100865.69;4951018;28;45753;-71
2022/06/05 04:20:32;;;;;;;;;10.25;9.50;;;;;20.12;68.58;100858.75;4932818;28;46827;-70
2022/06/05 04:23:02;;;;;;;;;14.00;12.25;;;;;20.29;68.95;100893.66;4950917;28;45734;-71
2022/06/05 04:25:38;;;;;;;;;;;;;;;;;;;;;
2022/06/05 04:28:06;;;;;;;;;11.00;9.75;;;;;20.17;68.77;100872.84;4926658;28;72329;-71
2022/06/05 04:30:39;;;;;;;;;11.00;11.00;;;;;20.15;68.96;100874.81;4943084;28;47441;-71
2022/06/05 04:33:18;;;;;;;;;;;;;;;;;;;;;
2022/06/05 04:35:49;;;;;;;;;12.00;11.25;;;;;20.39;68.76;100906.56;4931554;28;68909;-71
2022/06/05 04:38:25;;;;;;;;;;;;;;;;;;;;;
2022/06/05 04:41:00;;;;;;;;;;;;;;;;;;;;;
2022/06/05 04:43:34;;;;;;;;;11.50;11.50;;;;;20.13;68.68;100883.06;4946476;28;73481;-71
2022/06/05 04:46:09;;;;;;;;;;;;;;;;;;;;;
2022/06/05 04:48:37;;;;;;;;;9.00;9.00;;;;;20.15;68.65;100912.75;4950038;28;73847;-70
2022/06/05 04:51:12;;;;;;;;;9.00;9.00;;;;;20.21;68.93;100920.44;4932502;28;46609;-71
2022/06/05 04:53:39;;;;;;;;;8.00;8.00;;;;;20.27;68.84;100928.16;4957857;28;45924;-70
2022/06/05 04:56:09;;;;;;;;;12.25;10.25;;;;;20.26;69.10;100931.81;4956044;28;45403;-70
2022/06/05 04:58:42;;;;;;;;;9.75;9.75;;;;;20.28;68.98;100929.88;4944304;28;45332;-70
2022/06/05 05:01:47;;;;;;;;;;;;;;;;;;;;;
2022/06/05 05:04:23;;;;;;;;;8.75;7.75;;;;;20.37;68.90;100941.94;4939296;28;72916;-70
2022/06/05 05:06:49;;;;;;;;;10.00;8.50;;;;;20.23;69.11;100913.09;4927603;28;45324;-71
2022/06/05 05:09:23;;;;;;;;;12.25;9.00;;;;;20.05;68.45;100881.88;4936289;28;45558;-71
2022/06/05 05:11:49;;;;;;;;;11.25;9.50;;;;;20.46;69.24;100938.53;4924495;28;47356;-71
2022/06/05 05:14:34;;;;;;;;;;;;;;;;;;;;;
2022/06/05 05:17:03;;;;;;;;;14.50;13.25;;;;;20.18;68.75;100899.00;4928038;28;68861;-71
2022/06/05 05:19:28;;;;;;;;;15.00;14.25;;;;;20.17;68.50;100905.38;4950551;28;45327;-71
2022/06/05 05:22:04;;;;;;;;;;;;;;;;;;;;;
2022/06/05 05:24:29;;;;;;;;;15.00;13.50;;;;;20.05;68.83;100903.53;4944065;28;71977;-71
2022/06/05 05:27:00;;;;;;;;;16.75;16.75;;;;;20.03;68.79;100902.75;4939919;28;45472;-71
2022/06/05 05:29:25;;;;;;;;;14.25;11.75;;;;;20.08;69.13;100917.72;4951746;28;45358;-71
2022/06/05 05:31:52;;;;;;;;;15.25;12.25;;;;;19.87;69.08;100895.69;4937107;28;47071;-71
2022/06/05 05:34:17;;;;;;;;;11.50;10.75;;;;;20.18;69.44;100950.50;4956429;28;45527;-71
2022/06/05 05:36:43;;;;;;;;;14.00;14.00;;;;;20.02;69.44;100920.84;4958126;28;45359;-71
2022/06/05 05:42:05;;;;;;;;;12.50;9.50;;;;;20.15;69.51;100920.88;4931796;28;45514;-70
2022/06/05 05:44:51;;;;;;;;;10.00;8.75;;;;;20.35;68.97;100954.72;4947610;28;45304;-71
2022/06/05 05:47:23;;;;;;;;;9.75;8.50;;;;;20.18;69.71;100926.94;4944561;28;45313;-71
2022/06/05 05:49:54;;;;;;;;;9.00;9.00;;;;;20.04;69.03;100893.66;4943707;28;45439;-71
2022/06/05 05:52:21;;;;;;;;;10.25;8.75;;;;;20.31;69.67;100929.69;4924707;28;47365;-71
2022/06/05 05:54:46;;;;;;;;;8.25;8.25;;;;;20.24;69.02;100908.53;4950068;28;45441;-71
2022/06/05 05:57:17;;;;;;;;;7.00;7.00;;;;;20.09;69.36;100886.94;4942497;28;45773;-71
2022/06/05 05:59:45;;;;;;;;;11.25;9.00;;;;;20.12;68.83;100886.72;4951063;28;45298;-70
2022/06/05 06:02:16;;;;;;;;;9.00;9.00;;;;;20.14;68.82;100882.06;4946071;28;45418;-70
2022/06/05 06:04:56;;;;;;;;;9.25;8.75;;;;;20.52;68.82;100939.97;4943444;28;46047;-71
2022/06/05 06:07:31;;;;;;;;;9.00;9.00;;;;;20.46;68.73;100922.28;4947022;28;45586;-71
2022/06/05 06:09:59;;;;;;;;;9.00;7.75;;;;;20.27;68.99;100890.19;4955321;28;45390;-71
2022/06/05 06:12:27;;;;;;;;;9.00;8.75;;;;;20.33;69.21;100897.00;4928639;28;48251;-71
2022/06/05 06:14:56;;;;;;;;;10.50;10.50;;;;;20.46;68.73;100916.84;4933898;28;45514;-71
2022/06/05 06:17:26;;;;;;;;;11.75;9.00;;;;;20.39;68.76;100914.72;4949038;28;45352;-71
2022/06/05 06:20:03;;;;;;;;;10.25;9.50;;;;;20.34;69.19;100896.06;4940694;28;45716;-71
2022/06/05 06:22:32;;;;;;;;;9.25;9.25;;;;;20.45;69.11;100903.44;4949322;28;47466;-71
2022/06/05 06:25:02;;;;;;;;;11.50;11.00;;;;;20.56;69.30;100922.50;4946525;28;45342;-70
2022/06/05 06:27:30;;;;;;;;;12.75;12.25;;;;;20.48;68.89;100908.63;4942858;28;45231;-71
2022/06/05 06:29:55;;;;;;;;;10.00;9.50;;;;;20.57;69.42;100918.81;4948544;28;45300;-71
2022/06/05 06:32:21;;;;;;;;;10.00;9.00;;;;;20.28;69.33;100881.09;4937474;28;47390;-71
2022/06/05 06:34:49;;;;;;;;;9.00;9.00;;;;;20.26;69.15;100871.31;4950449;28;45325;-71
2022/06/05 06:37:16;;;;;;;;;8.50;8.50;;;;;20.37;69.08;100890.41;4947423;28;45426;-71
2022/06/05 06:39:44;;;;;;;;;11.00;9.50;;;;;20.63;69.03;100931.09;4949783;28;45292;-71
2022/06/05 06:42:12;;;;;;;;;9.25;9.25;;;;;20.63;69.70;100923.84;4953461;28;46392;-71
2022/06/05 06:44:37;;;;;;;;;11.75;10.00;;;;;20.59;69.44;100908.72;4952107;28;45572;-71
2022/06/05 06:47:10;;;;;;;;;10.75;9.25;;;;;20.70;69.15;100919.69;4939160;28;45581;-70
2022/06/05 06:49:43;;;;;;;;;8.50;8.25;;;;;20.70;69.59;100925.13;4952867;28;45220;-70
2022/06/05 06:52:11;;;;;;;;;9.00;9.00;;;;;20.70;69.81;100916.13;4939161;28;47310;-70
2022/06/05 06:54:46;;;;;;;;;7.00;7.00;;;;;20.66;69.51;100901.91;4953531;28;45347;-71
2022/06/05 06:57:17;;;;;;;;;8.50;8.25;;;;;20.57;69.18;100877.28;4950540;28;45604;-70
2022/06/05 06:59:52;;;;;;;;;9.50;9.50;;;;;20.80;69.45;100905.44;4952204;28;45265;-71
2022/06/05 07:02:18;;;;;;;;;9.00;9.00;;;;;20.84;69.38;100904.25;4946160;28;47505;-71
2022/06/05 07:04:45;;;;;;;;;9.50;7.75;;;;;20.80;69.06;100894.59;4942871;28;45266;-70
2022/06/05 07:07:11;;;;;;;;;9.00;9.00;;;;;20.52;69.17;100848.63;4947661;28;45308;-70
2022/06/05 07:09:38;;;;;;;;;10.25;10.25;;;;;20.86;69.39;100907.72;4945834;28;45534;-70
2022/06/05 07:12:14;;;;;;;;;;;;;;;;;;;;;
2022/06/05 07:14:40;;;;;;;;;6.25;6.25;;;;;20.59;69.66;100851.75;4952227;28;72377;-70
2022/06/05 07:17:07;;;;;;;;;10.00;8.00;;;;;20.78;69.38;100874.88;4950545;28;45681;-70
2022/06/05 07:19:35;;;;;;;;;8.25;6.00;;;;;20.86;69.33;100880.59;4942206;28;45511;-71
2022/06/05 07:22:01;;;;;;;;;6.75;6.25;;;;;20.95;69.32;100890.78;4932349;28;45462;-70
2022/06/05 07:24:26;;;;;;;;;7.00;7.00;;;;;20.63;69.19;100828.91;4929992;28;45410;-70
2022/06/05 07:26:54;;;;;;;;;6.50;6.25;;;;;20.64;69.48;100836.06;4930684;28;45416;-70
2022/06/05 07:29:19;;;;;;;;;7.25;6.00;;;;;20.66;69.92;100839.50;4948863;28;45340;-70
2022/06/05 07:31:47;;;;;;;;;7.00;7.00;;;;;20.61;70.13;100828.09;4934817;28;46140;-71
2022/06/05 07:34:13;;;;;;;;;5.75;5.75;;;;;20.99;69.89;100886.84;4948804;28;45331;-70
2022/06/05 07:36:38;;;;;;;;;8.00;6.50;;;;;20.89;69.45;100867.66;4953303;28;45537;-71
2022/06/05 07:39:06;;;;;;;;;5.75;5.75;;;;;20.70;69.92;100822.06;4936938;28;45550;-71
2022/06/05 07:41:36;;;;;;;;;9.50;8.75;;;;;20.92;70.15;100853.03;4929497;28;46498;-70
2022/06/05 07:44:05;;;;;;;;;7.50;6.00;;;;;20.89;69.75;100840.53;4933912;28;45447;-69
2022/06/05 07:46:38;;;;;;;;;7.00;6.00;;;;;21.01;70.09;100857.75;4928008;28;45490;-70
2022/06/05 07:49:14;;;;;;;;;;;;;;;;;;;;;
2022/06/05 07:54:34;;;;;;;;;6.00;6.00;;;;;21.18;69.15;100867.34;4947871;28;45308;-69
2022/06/05 07:57:06;;;;;;;;;5.25;5.00;;;;;21.38;68.15;100890.25;4944708;28;45331;-70
2022/06/05 07:59:34;;;;;;;;;7.00;7.00;;;;;21.43;68.32;100896.25;4942568;28;45494;-69
2022/06/05 08:02:08;;;;;;;;;8.00;7.00;;;;;21.28;68.59;100856.66;4932918;28;46151;-76
2022/06/05 08:04:35;;;;;;;;;7.00;7.00;;;;;21.35;67.84;100866.09;4959121;28;45178;-70
2022/06/05 08:07:05;;;;;;;;;9.00;7.25;;;;;21.48;67.54;100876.88;4957529;28;45387;-70
2022/06/05 08:09:31;;;;;;;;;7.50;6.00;;;;;21.59;68.52;100890.53;4956584;28;45364;-71
2022/06/05 08:11:57;;;;;;;;;9.00;6.00;;;;;21.36;67.84;100856.09;4927433;28;46100;-71
2022/06/05 08:14:23;;;;;;;;;7.50;5.75;;;;;21.22;67.76;100833.56;4936385;28;45328;-70
2022/06/05 08:16:48;;;;;;;;;7.00;7.00;;;;;21.37;67.33;100858.69;4939416;28;45593;-71
2022/06/05 08:19:17;;;;;;;;;7.00;6.75;;;;;21.44;67.60;100864.50;5029839;28;45688;-70
2022/06/05 08:21:44;;;;;;;;;5.00;5.00;;;;;21.71;67.30;100912.31;4933797;28;47169;-71
2022/06/05 08:24:10;;;;;;;;;7.00;5.75;;;;;21.74;67.75;100907.50;4958660;28;45378;-71
2022/06/05 08:26:35;;;;;;;;;5.75;5.75;;;;;21.72;68.27;100905.88;4933880;28;45491;-71
2022/06/05 08:29:01;;;;;;;;;6.00;6.00;;;;;21.63;67.60;100896.59;4930380;28;45508;-70
2022/06/05 08:31:29;;;;;;;;;5.25;5.00;;;;;21.64;67.63;100890.19;4936051;28;47887;-70
2022/06/05 08:33:56;;;;;;;;;6.00;4.75;;;;;21.65;67.29;100900.03;4947827;28;45621;-70
2022/06/05 08:36:21;;;;;;;;;5.50;5.25;;;;;21.81;66.95;100926.91;4950031;28;45548;-70
2022/06/05 08:41:52;;;;;;;;;5.00;5.00;;;;;21.83;67.35;100917.69;4943252;28;45825;-70
2022/06/05 08:44:39;;;;;;;;;5.00;5.00;;;;;21.84;67.17;100916.66;4942101;28;45891;-70
2022/06/05 08:47:15;;;;;;;;;3.75;3.75;;;;;21.84;66.90;100926.69;4944940;28;45490;-70
2022/06/05 08:49:48;;;;;;;;;3.25;2.50;;;;;21.84;66.62;100927.53;4950296;28;45587;-70
2022/06/05 08:52:31;;;;;;;;;2.50;2.25;;;;;21.82;66.00;100936.81;4951737;28;45361;-70
2022/06/05 08:55:21;;;;;;;;;4.75;4.00;;;;;21.62;65.82;100912.03;4927632;28;45503;-70
2022/06/05 08:57:54;;;;;;;;;3.50;3.50;;;;;21.81;66.20;100938.63;4945276;28;45513;-70
2022/06/05 09:00:32;;;;;;;;;4.00;3.50;;;;;21.68;65.71;100924.25;4945819;28;45380;-70
2022/06/05 09:03:11;;;;;;;;;4.00;4.00;;;;;21.37;65.80;100869.53;4927884;28;46141;-70
2022/06/05 09:05:40;;;;;;;;;6.50;5.50;;;;;21.76;65.87;100935.41;4951765;28;45465;-70
2022/06/05 09:08:22;;;;;;;;;7.75;5.75;;;;;21.53;65.75;100906.44;4948539;28;45425;-70
2022/06/05 09:11:27;;;;;;;;;7.00;7.00;;;;;21.62;66.05;100925.59;4938375;28;45446;-70
2022/06/05 09:14:08;;;;;;;;;7.25;7.25;;;;;21.76;66.20;100950.84;4926781;28;48187;-70
2022/06/05 09:16:42;;;;;;;;;6.50;6.50;;;;;21.63;66.04;100940.03;4950426;28;45282;-70
2022/06/05 09:19:16;;;;;;;;;4.75;4.75;;;;;21.67;65.82;100948.81;4951859;28;45228;-70
2022/06/05 09:21:52;;;;;;;;;9.00;7.75;;;;;21.46;65.60;100916.84;4945499;28;46014;-70
2022/06/05 09:24:39;;;;;;;;;6.25;5.50;;;;;21.78;66.16;100978.78;4945285;28;46250;-70
2022/06/05 09:27:25;;;;;;;;;6.50;5.50;;;;;21.61;65.59;100956.47;4944585;28;45424;-70
2022/06/05 09:30:08;;;;;;;;;6.75;6.75;;;;;21.72;66.30;100965.63;4928357;28;45412;-71
2022/06/05 09:33:00;;;;;;;;;7.75;7.75;;;;;21.75;66.40;100988.03;4942776;28;45306;-70
2022/06/05 09:35:40;;;;;;;;;9.75;6.00;;;;;21.78;66.62;101005.94;4945042;28;46351;-71
2022/06/05 09:38:18;;;;;;;;;8.25;7.25;;;;;21.55;66.21;100961.50;4948345;28;45470;-71
2022/06/05 09:40:56;;;;;;;;;8.50;8.50;;;;;21.60;66.18;100964.72;4951598;28;45505;-70
2022/06/05 09:43:21;;;;;;;;;8.00;7.25;;;;;21.76;66.50;100997.91;4951422;28;45308;-71
2022/06/05 09:45:52;;;;;;;;;9.00;9.00;;;;;21.76;67.05;100997.03;4945147;28;46421;-70
2022/06/05 09:48:54;;;;;;;;;8.25;8.25;;;;;21.62;66.64;100982.66;4944916;28;45427;-71
2022/06/05 09:51:20;;;;;;;;;7.50;7.50;;;;;21.40;66.68;100944.47;4945620;28;45541;-70
2022/06/05 09:54:04;;;;;;;;;9.25;9.25;;;;;21.61;67.07;100986.34;4950059;28;45185;-70
2022/06/05 09:59:53;;;;;;;;;12.50;8.50;;;;;21.60;67.19;100990.06;4935493;28;45489;-71
2022/06/05 10:02:21;;;;;;;;;10.25;10.25;;;;;21.71;67.21;101007.41;4948187;28;45345;-70
2022/06/05 10:04:51;;;;;;;;;8.00;8.00;;;;;21.74;67.42;101009.88;4945130;28;45273;-71
2022/06/05 10:07:48;;;;;;;;;7.75;7.25;;;;;21.73;66.81;101011.72;4949687;28;46111;-70
2022/06/05 10:10:25;;;;;;;;;10.00;10.00;;;;;21.56;66.44;100993.13;4935480;28;45259;-70
2022/06/05 10:13:01;;;;;;;;;9.00;9.00;;;;;21.53;65.87;100990.63;4941777;28;45357;-70
2022/06/05 10:15:34;;;;;;;;;8.00;8.00;;;;;21.72;66.18;101025.41;4951084;28;45414;-70
2022/06/05 10:18:17;;;;;;;;;12.25;9.00;;;;;21.46;65.89;100988.31;4968817;28;48594;-70
2022/06/05 10:20:49;;;;;;;;;8.75;8.75;;;;;21.54;66.59;101008.66;4945529;28;45401;-70
2022/06/05 10:23:15;;;;;;;;;10.00;9.00;;;;;21.69;66.33;101028.38;4951679;28;45455;-70
2022/06/05 10:25:59;;;;;;;;;10.25;10.25;;;;;21.67;66.17;101039.38;4952491;28;45369;-70
2022/06/05 10:28:37;;;;;;;;;10.75;10.00;;;;;21.65;66.27;101033.16;4951172;28;46246;-70
2022/06/05 10:31:25;;;;;;;;;10.75;10.75;;;;;21.53;66.14;101009.63;4940963;28;45658;-70
2022/06/05 10:34:16;;;;;;;;;8.75;8.75;;;;;21.63;65.84;101033.28;4952684;28;45262;-70
2022/06/05 10:37:12;;;;;;;;;8.75;8.75;;;;;21.60;66.06;101038.06;4952447;28;45577;-70
2022/06/05 10:40:28;;;;;;;;;12.00;12.00;;;;;21.56;65.34;101037.44;4929375;28;47325;-70
2022/06/05 10:42:56;;;;;;;;;10.00;9.50;;;;;21.58;65.39;101034.59;4938676;28;45585;-70
2022/06/05 10:45:42;;;;;;;;;11.75;11.25;;;;;21.49;65.56;101021.72;4952422;28;45265;-70
2022/06/05 10:48:19;;;;;;;;;7.25;7.25;;;;;21.57;65.42;101036.47;4952199;28;45904;-70
2022/06/05 10:50:52;;;;;;;;;12.75;12.75;;;;;21.41;65.62;101022.25;4927852;28;47273;-70
2022/06/05 10:53:41;;;;;;;;;13.00;12.50;;;;;21.49;65.69;101027.16;4953888;28;45315;-70
2022/06/05 10:56:12;;;;;;;;;10.00;10.00;;;;;21.57;65.84;101044.59;4957979;28;45416;-71
2022/06/05 10:59:06;;;;;;;;;12.25;12.25;;;;;21.56;65.91;101042.00;4945726;28;45578;-71
2022/06/05 11:01:58;;;;;;;;;14.50;14.00;;;;;21.54;65.52;101052.13;4945371;28;48208;-70
2022/06/05 11:04:58;;;;;;;;;12.25;11.75;;;;;21.14;65.77;100993.41;4946934;28;45225;-71
2022/06/05 11:07:33;;;;;;;;;12.75;12.00;;;;;21.53;65.76;101055.81;4948556;28;45526;-70
2022/06/05 11:10:14;;;;;;;;;13.25;13.25;;;;;21.25;65.55;101007.09;4946503;28;45495;-71
2022/06/05 11:15:52;;;;;;;;;11.50;11.50;;;;;21.43;65.62;101051.03;4948104;28;45319;-70
2022/06/05 11:18:35;;;;;;;;;12.00;12.00;;;;;21.34;65.55;101031.81;4925809;28;45420;-71
2022/06/05 11:21:02;;;;;;;;;16.00;14.75;;;;;21.35;65.77;101033.53;4941382;28;46080;-70
2022/06/05 11:23:33;;;;;;;;;14.00;14.00;;;;;21.39;65.59;101044.06;4949048;28;47692;-70
2022/06/05 11:26:21;;;;;;;;;16.75;13.00;;;;;21.42;65.69;101051.13;4952883;28;45453;-70
2022/06/05 11:28:50;;;;;;;;;19.00;16.25;;;;;21.39;65.67;101051.34;4951984;28;45487;-70
2022/06/05 11:31:40;;;;;;;;;13.00;11.50;;;;;21.41;65.87;101050.25;4939097;28;45334;-70
2022/06/05 11:34:30;;;;;;;;;14.25;14.25;;;;;21.42;65.75;101053.84;4953100;28;46237;-70
2022/06/05 11:37:09;;;;;;;;;13.50;12.25;;;;;21.24;65.41;101027.06;4951606;28;45608;-70
2022/06/05 11:39:59;;;;;;;;;14.25;14.25;;;;;21.45;66.14;101069.91;4949553;28;45402;-70
2022/06/05 11:43:00;;;;;;;;;12.75;11.25;;;;;21.44;65.45;101068.19;4933593;28;45749;-71
2022/06/05 11:45:38;;;;;;;;;13.50;12.25;;;;;21.35;65.36;101056.16;4960896;28;47079;-70
2022/06/05 11:48:14;;;;;;;;;11.50;11.50;;;;;21.21;65.64;101035.41;4950739;28;45439;-70
2022/06/05 11:51:05;;;;;;;;;13.00;11.50;;;;;21.43;65.01;101080.91;4927934;28;45234;-70
2022/06/05 11:54:12;;;;;;;;;14.25;14.25;;;;;21.45;65.37;101083.47;4951652;28;45383;-70
2022/06/05 11:56:48;;;;;;;;;16.75;16.75;;;;;21.45;65.10;101088.91;4956047;28;47261;-70
2022/06/05 11:59:24;;;;;;;;;12.50;12.50;;;;;21.26;65.55;101062.25;4950652;28;45344;-70
2022/06/05 12:02:08;;;;;;;;;15.75;13.00;;;;;21.45;65.44;101091.63;4946125;28;45250;-71
2022/06/05 12:04:56;;;;;;;;;13.50;12.00;;;;;21.17;65.03;101046.63;4946209;28;45221;-70
2022/06/05 12:07:24;;;;;;;;;14.75;12.25;;;;;21.22;64.52;101055.31;4948374;28;46873;-70
2022/06/05 12:09:58;;;;;;;;;15.75;14.00;;;;;21.27;64.65;101059.41;4945400;28;45389;-71
2022/06/05 12:12:31;;;;;;;;;12.00;12.00;;;;;21.25;65.19;101053.22;4939749;28;45400;-70
2022/06/05 12:15:17;;;;;;;;;13.25;13.25;;;;;21.25;64.96;101042.38;4951681;28;45359;-70
2022/06/05 12:18:03;;;;;;;;;11.75;11.75;;;;;21.34;64.66;101070.69;4952346;28;45371;-70
2022/06/05 12:20:38;;;;;;;;;14.50;13.25;;;;;21.40;64.62;101072.97;4944027;28;45489;-71
2022/06/05 12:23:56;;;;;;;;;14.75;12.75;;;;;21.31;65.19;101068.19;4952588;28;45464;-70
2022/06/05 12:26:33;;;;;;;;;11.25;11.25;;;;;21.36;64.99;101067.88;4940259;28;45561;-71
2022/06/05 12:29:06;;;;;;;;;13.25;13.25;;;;;21.56;65.16;101105.31;4939062;28;45558;-70
2022/06/05 12:31:41;;;;;;;;;13.00;13.00;;;;;21.43;65.15;101090.88;4941395;28;45525;-71
2022/06/05 12:34:20;;;;;;;;;12.25;12.25;;;;;21.57;64.98;101117.94;4952501;28;45358;-70
2022/06/05 12:37:02;;;;;;;;;11.75;11.00;;;;;21.52;64.46;101103.84;4950830;28;45266;-70
2022/06/05 12:39:43;;;;;;;;;12.75;12.25;;;;;21.53;64.04;101101.97;4928611;28;46369;-70
2022/06/05 12:42:23;;;;;;;;;12.75;11.00;;;;;21.56;64.65;101115.34;4952168;28;45329;-70
2022/06/05 12:44:55;;;;;;;;;17.00;13.25;;;;;21.45;63.99;101100.66;4950494;28;45272;-70
2022/06/05 12:47:34;;;;;;;;;12.00;12.00;;;;;21.60;64.23;101119.56;4926807;28;45468;-70
2022/06/05 12:50:23;;;;;;;;;13.75;13.75;;;;;21.62;64.65;101123.03;4950900;28;47047;-70
2022/06/05 12:53:00;;;;;;;;;10.25;9.75;;;;;21.43;63.99;101094.47;4958581;28;45570;-70
2022/06/05 12:55:35;;;;;;;;;12.75;12.75;;;;;21.42;64.34;101100.03;4931439;28;45390;-70
2022/06/05 12:58:15;;;;;;;;;13.00;11.50;;;;;21.62;64.35;101142.91;4945557;28;45527;-71